sensor_id;sensor_type;location;lat;lon;timestamp;temperature;humidity
7028;DHT22;3555;53.248;10.336;2023-06-26T00:02:15;22.10;1.00
7028;DHT22;3555;53.248;10.336;2023-06-26T00:04:42;22.00;99.90
7028;DHT22;3555;53.248;10.336;2023-06-26T00:07:09;22.00;1.00
7028;DHT22;3555;53.248;10.336;2023-06-26T00:09:37;22.00;1.00
7028;DHT22;3555;53.248;10.336;2023-06-26T00:12:04;21.90;1.00
7028;DHT22;3555;53.248;10.336;2023-06-26T00:14:32;22.00;1.00
7028;DHT22;3555;53.248;10.336;2023-06-26T00:16:59;22.10;1.00
7028;DHT22;3555;53.248;10.336;2023-06-26T00:19:26;22.00;99.90
7028;DHT22;3555;53.248;10.336;2023-06-26T00:21:53;22.00;99.90
7028;DHT22;3555;53.248;10.336;2023-06-26T00:24:20;22.00;99.90
7028;DHT22;3555;53.248;10.336;2023-06-26T00:26:47;22.00;1.00
7028;DHT22;3555;53.248;10.336;2023-06-26T00:29:15;21.90;1.00
7028;DHT22;3555;53.248;10.336;2023-06-26T00:31:43;21.90;1.00
7028;DHT22;3555;53.248;10.336;2023-06-26T00:34:10;21.70;1.00
7028;DHT22;3555;53.248;10.336;2023-06-26T00:36:37;21.80;1.00
7028;DHT22;3555;53.248;10.336;2023-06-26T00:39:04;21.80;1.00
7028;DHT22;3555;53.248;10.336;2023-06-26T00:41:31;21.90;1.00
7028;DHT22;3555;53.248;10.336;2023-06-26T00:43:58;21.90;1.00
7028;DHT22;3555;53.248;10.336;2023-06-26T00:46:25;22.00;1.00
7028;DHT22;3555;53.248;10.336;2023-06-26T00:48:54;22.10;1.00
7028;DHT22;3555;53.248;10.336;2023-06-26T00:51:21;22.10;99.90
7028;DHT22;3555;53.248;10.336;2023-06-26T00:53:49;22.10;99.90
7028;DHT22;3555;53.248;10.336;2023-06-26T00:56:17;22.10;1.00
7028;DHT22;3555;53.248;10.336;2023-06-26T00:58:45;22.10;99.90
7028;DHT22;3555;53.248;10.336;2023-06-26T01:01:12;22.10;99.90
7028;DHT22;3555;53.248;10.336;2023-06-26T01:03:41;22.00;99.90
7028;DHT22;3555;53.248;10.336;2023-06-26T01:06:11;22.00;1.00
7028;DHT22;3555;53.248;10.336;2023-06-26T01:08:39;22.00;99.90
7028;DHT22;3555;53.248;10.336;2023-06-26T01:11:07;21.80;1.00
7028;DHT22;3555;53.248;10.336;2023-06-26T01:13:35;21.80;1.00
7028;DHT22;3555;53.248;10.336;2023-06-26T01:16:04;21.80;99.90
7028;DHT22;3555;53.248;10.336;2023-06-26T01:18:32;21.60;1.00
7028;DHT22;3555;53.248;10.336;2023-06-26T01:21:01;21.40;1.00
7028;DHT22;3555;53.248;10.336;2023-06-26T01:23:37;21.30;40.50
7028;DHT22;3555;53.248;10.336;2023-06-26T01:26:17;21.30;99.90
7028;DHT22;3555;53.248;10.336;2023-06-26T01:28:46;21.30;99.90
7028;DHT22;3555;53.248;10.336;2023-06-26T01:31:14;21.30;22.30
7028;DHT22;3555;53.248;10.336;2023-06-26T01:33:41;21.30;99.90
7028;DHT22;3555;53.248;10.336;2023-06-26T01:36:10;21.20;99.90
7028;DHT22;3555;53.248;10.336;2023-06-26T01:38:37;21.10;99.90
7028;DHT22;3555;53.248;10.336;2023-06-26T01:41:04;21.20;99.90
7028;DHT22;3555;53.248;10.336;2023-06-26T01:43:41;21.10;99.90
7028;DHT22;3555;53.248;10.336;2023-06-26T01:46:15;21.20;99.90
7028;DHT22;3555;53.248;10.336;2023-06-26T01:48:49;21.20;99.90
7028;DHT22;3555;53.248;10.336;2023-06-26T01:51:18;21.20;99.90
7028;DHT22;3555;53.248;10.336;2023-06-26T01:53:53;21.30;99.90
7028;DHT22;3555;53.248;10.336;2023-06-26T01:56:22;21.30;99.90
7028;DHT22;3555;53.248;10.336;2023-06-26T01:58:51;21.30;96.50
7028;DHT22;3555;53.248;10.336;2023-06-26T02:01:21;21.30;1.00
7028;DHT22;3555;53.248;10.336;2023-06-26T02:03:48;21.20;75.60
7028;DHT22;3555;53.248;10.336;2023-06-26T02:06:15;21.10;91.00
7028;DHT22;3555;53.248;10.336;2023-06-26T02:08:42;21.00;93.20
7028;DHT22;3555;53.248;10.336;2023-06-26T02:11:08;20.90;99.90
7028;DHT22;3555;53.248;10.336;2023-06-26T02:13:35;20.70;99.90
7028;DHT22;3555;53.248;10.336;2023-06-26T02:16:04;20.70;99.90
7028;DHT22;3555;53.248;10.336;2023-06-26T02:18:31;20.50;99.90
7028;DHT22;3555;53.248;10.336;2023-06-26T02:20:58;20.50;99.90
7028;DHT22;3555;53.248;10.336;2023-06-26T02:23:25;20.40;99.90
7028;DHT22;3555;53.248;10.336;2023-06-26T02:25:52;20.30;99.90
7028;DHT22;3555;53.248;10.336;2023-06-26T02:28:19;20.30;99.90
7028;DHT22;3555;53.248;10.336;2023-06-26T02:30:46;20.30;99.90
7028;DHT22;3555;53.248;10.336;2023-06-26T02:33:14;20.30;99.90
7028;DHT22;3555;53.248;10.336;2023-06-26T02:35:41;20.40;99.90
7028;DHT22;3555;53.248;10.336;2023-06-26T02:38:08;20.50;99.90
7028;DHT22;3555;53.248;10.336;2023-06-26T02:40:35;20.40;99.90
7028;DHT22;3555;53.248;10.336;2023-06-26T02:43:03;20.50;99.90
7028;DHT22;3555;53.248;10.336;2023-06-26T02:45:29;20.50;99.90
7028;DHT22;3555;53.248;10.336;2023-06-26T02:47:56;20.40;99.90
7028;DHT22;3555;53.248;10.336;2023-06-26T02:50:24;20.40;99.90
7028;DHT22;3555;53.248;10.336;2023-06-26T02:52:51;20.40;99.90
7028;DHT22;3555;53.248;10.336;2023-06-26T02:55:19;20.40;99.90
7028;DHT22;3555;53.248;10.336;2023-06-26T02:57:46;20.50;99.90
7028;DHT22;3555;53.248;10.336;2023-06-26T03:00:14;20.40;99.90
7028;DHT22;3555;53.248;10.336;2023-06-26T03:02:41;20.30;99.90
7028;DHT22;3555;53.248;10.336;2023-06-26T03:05:08;20.30;99.90
7028;DHT22;3555;53.248;10.336;2023-06-26T03:07:36;20.30;99.90
7028;DHT22;3555;53.248;10.336;2023-06-26T03:10:03;20.30;99.90
7028;DHT22;3555;53.248;10.336;2023-06-26T03:12:31;20.40;99.90
7028;DHT22;3555;53.248;10.336;2023-06-26T03:14:57;20.40;99.90
7028;DHT22;3555;53.248;10.336;2023-06-26T03:17:24;20.40;99.90
7028;DHT22;3555;53.248;10.336;2023-06-26T03:19:51;20.40;99.90
7028;DHT22;3555;53.248;10.336;2023-06-26T03:22:18;20.40;99.90
7028;DHT22;3555;53.248;10.336;2023-06-26T03:24:46;20.30;99.90
7028;DHT22;3555;53.248;10.336;2023-06-26T03:27:13;20.20;99.90
7028;DHT22;3555;53.248;10.336;2023-06-26T03:29:41;20.20;99.90
7028;DHT22;3555;53.248;10.336;2023-06-26T03:32:08;20.20;99.90
7028;DHT22;3555;53.248;10.336;2023-06-26T03:34:35;20.20;99.90
7028;DHT22;3555;53.248;10.336;2023-06-26T03:37:02;20.20;99.90
7028;DHT22;3555;53.248;10.336;2023-06-26T03:39:29;20.20;99.90
7028;DHT22;3555;53.248;10.336;2023-06-26T03:41:57;20.20;99.90
7028;DHT22;3555;53.248;10.336;2023-06-26T03:44:26;20.10;99.90
7028;DHT22;3555;53.248;10.336;2023-06-26T03:46:53;20.10;99.90
7028;DHT22;3555;53.248;10.336;2023-06-26T03:49:20;20.10;99.90
7028;DHT22;3555;53.248;10.336;2023-06-26T03:51:47;20.20;99.90
7028;DHT22;3555;53.248;10.336;2023-06-26T03:54:14;20.20;99.90
7028;DHT22;3555;53.248;10.336;2023-06-26T03:56:41;20.20;99.90
7028;DHT22;3555;53.248;10.336;2023-06-26T03:59:09;20.30;99.90
7028;DHT22;3555;53.248;10.336;2023-06-26T04:01:37;20.40;99.90
7028;DHT22;3555;53.248;10.336;2023-06-26T04:04:04;20.50;99.90
7028;DHT22;3555;53.248;10.336;2023-06-26T04:06:31;20.50;99.90
7028;DHT22;3555;53.248;10.336;2023-06-26T04:08:58;20.40;99.90
7028;DHT22;3555;53.248;10.336;2023-06-26T04:11:26;20.30;99.90
7028;DHT22;3555;53.248;10.336;2023-06-26T04:13:53;20.40;99.90
7028;DHT22;3555;53.248;10.336;2023-06-26T04:16:22;20.40;99.90
7028;DHT22;3555;53.248;10.336;2023-06-26T04:18:50;20.50;99.90
7028;DHT22;3555;53.248;10.336;2023-06-26T04:21:18;20.50;99.90
7028;DHT22;3555;53.248;10.336;2023-06-26T04:23:45;20.60;99.90
7028;DHT22;3555;53.248;10.336;2023-06-26T04:26:13;20.60;99.90
7028;DHT22;3555;53.248;10.336;2023-06-26T04:28:40;20.70;99.90
7028;DHT22;3555;53.248;10.336;2023-06-26T04:31:07;20.50;99.90
7028;DHT22;3555;53.248;10.336;2023-06-26T04:33:36;20.60;99.90
7028;DHT22;3555;53.248;10.336;2023-06-26T04:36:03;20.70;99.90
7028;DHT22;3555;53.248;10.336;2023-06-26T04:38:30;20.80;99.90
7028;DHT22;3555;53.248;10.336;2023-06-26T04:40:57;20.90;99.90
7028;DHT22;3555;53.248;10.336;2023-06-26T04:43:24;20.90;99.90
7028;DHT22;3555;53.248;10.336;2023-06-26T04:45:51;21.00;99.90
7028;DHT22;3555;53.248;10.336;2023-06-26T04:48:18;21.20;99.90
7028;DHT22;3555;53.248;10.336;2023-06-26T04:50:46;21.30;27.80
7028;DHT22;3555;53.248;10.336;2023-06-26T04:53:19;21.40;10.50
7028;DHT22;3555;53.248;10.336;2023-06-26T04:55:46;21.40;1.00
7028;DHT22;3555;53.248;10.336;2023-06-26T04:58:13;21.50;1.00
7028;DHT22;3555;53.248;10.336;2023-06-26T05:00:40;21.70;1.00
7028;DHT22;3555;53.248;10.336;2023-06-26T05:03:08;21.80;1.00
7028;DHT22;3555;53.248;10.336;2023-06-26T05:05:35;22.00;1.00
7028;DHT22;3555;53.248;10.336;2023-06-26T05:08:15;22.00;1.00
7028;DHT22;3555;53.248;10.336;2023-06-26T05:10:42;22.30;99.90
7028;DHT22;3555;53.248;10.336;2023-06-26T05:13:09;22.50;1.00
7028;DHT22;3555;53.248;10.336;2023-06-26T05:15:36;22.60;99.90
7028;DHT22;3555;53.248;10.336;2023-06-26T05:18:03;22.80;99.90
7028;DHT22;3555;53.248;10.336;2023-06-26T05:20:31;22.90;99.90
7028;DHT22;3555;53.248;10.336;2023-06-26T05:22:58;23.10;99.90
7028;DHT22;3555;53.248;10.336;2023-06-26T05:25:27;23.20;1.00
7028;DHT22;3555;53.248;10.336;2023-06-26T05:27:56;23.30;1.00
7028;DHT22;3555;53.248;10.336;2023-06-26T05:30:23;23.50;1.00
7028;DHT22;3555;53.248;10.336;2023-06-26T05:32:52;23.70;99.90
7028;DHT22;3555;53.248;10.336;2023-06-26T05:35:20;24.00;1.00
7028;DHT22;3555;53.248;10.336;2023-06-26T05:37:49;24.10;1.00
7028;DHT22;3555;53.248;10.336;2023-06-26T05:40:18;24.00;1.00
7028;DHT22;3555;53.248;10.336;2023-06-26T05:42:47;23.90;1.00
7028;DHT22;3555;53.248;10.336;2023-06-26T05:45:15;24.10;1.00
7028;DHT22;3555;53.248;10.336;2023-06-26T05:47:42;24.40;1.00
7028;DHT22;3555;53.248;10.336;2023-06-26T05:50:10;24.50;1.00
7028;DHT22;3555;53.248;10.336;2023-06-26T05:52:37;24.60;99.90
7028;DHT22;3555;53.248;10.336;2023-06-26T05:55:06;24.70;99.90
7028;DHT22;3555;53.248;10.336;2023-06-26T05:57:34;24.80;99.90
7028;DHT22;3555;53.248;10.336;2023-06-26T06:00:04;24.80;1.00
7028;DHT22;3555;53.248;10.336;2023-06-26T06:02:36;24.90;1.00
7028;DHT22;3555;53.248;10.336;2023-06-26T06:05:03;25.00;4.80
7028;DHT22;3555;53.248;10.336;2023-06-26T06:07:31;25.30;99.90
7028;DHT22;3555;53.248;10.336;2023-06-26T06:09:59;25.60;1.00
7028;DHT22;3555;53.248;10.336;2023-06-26T06:12:26;25.90;99.90
7028;DHT22;3555;53.248;10.336;2023-06-26T06:14:53;26.20;99.90
7028;DHT22;3555;53.248;10.336;2023-06-26T06:17:21;26.40;1.00
7028;DHT22;3555;53.248;10.336;2023-06-26T06:19:48;26.60;13.00
7028;DHT22;3555;53.248;10.336;2023-06-26T06:22:15;26.60;1.00
7028;DHT22;3555;53.248;10.336;2023-06-26T06:24:43;26.70;1.00
7028;DHT22;3555;53.248;10.336;2023-06-26T06:27:10;26.10;1.00
7028;DHT22;3555;53.248;10.336;2023-06-26T06:29:38;26.10;85.60
7028;DHT22;3555;53.248;10.336;2023-06-26T06:32:06;26.20;99.90
7028;DHT22;3555;53.248;10.336;2023-06-26T06:34:34;26.20;1.00
7028;DHT22;3555;53.248;10.336;2023-06-26T06:37:02;26.30;1.00
7028;DHT22;3555;53.248;10.336;2023-06-26T06:39:29;26.30;1.00
7028;DHT22;3555;53.248;10.336;2023-06-26T06:41:56;26.50;1.00
7028;DHT22;3555;53.248;10.336;2023-06-26T06:44:23;26.90;1.00
7028;DHT22;3555;53.248;10.336;2023-06-26T06:46:50;27.20;1.00
7028;DHT22;3555;53.248;10.336;2023-06-26T06:49:17;27.40;1.00
7028;DHT22;3555;53.248;10.336;2023-06-26T06:51:45;27.40;1.00
7028;DHT22;3555;53.248;10.336;2023-06-26T06:54:12;27.40;1.00
7028;DHT22;3555;53.248;10.336;2023-06-26T06:56:39;27.40;99.90
7028;DHT22;3555;53.248;10.336;2023-06-26T06:59:06;27.50;99.90
7028;DHT22;3555;53.248;10.336;2023-06-26T07:01:33;27.70;99.90
7028;DHT22;3555;53.248;10.336;2023-06-26T07:04:00;27.80;99.90
7028;DHT22;3555;53.248;10.336;2023-06-26T07:06:29;27.80;99.90
7028;DHT22;3555;53.248;10.336;2023-06-26T07:08:57;27.90;99.90
7028;DHT22;3555;53.248;10.336;2023-06-26T07:11:24;27.50;99.90
7028;DHT22;3555;53.248;10.336;2023-06-26T07:13:51;27.70;99.90
7028;DHT22;3555;53.248;10.336;2023-06-26T07:16:18;27.50;99.90
7028;DHT22;3555;53.248;10.336;2023-06-26T07:18:45;27.30;99.90
7028;DHT22;3555;53.248;10.336;2023-06-26T07:21:12;27.40;1.00
7028;DHT22;3555;53.248;10.336;2023-06-26T07:23:39;27.60;1.00
7028;DHT22;3555;53.248;10.336;2023-06-26T07:26:07;27.90;1.00
7028;DHT22;3555;53.248;10.336;2023-06-26T07:28:34;28.10;99.90
7028;DHT22;3555;53.248;10.336;2023-06-26T07:31:01;28.30;99.90
7028;DHT22;3555;53.248;10.336;2023-06-26T07:33:28;28.70;99.90
7028;DHT22;3555;53.248;10.336;2023-06-26T07:35:55;28.40;99.90
7028;DHT22;3555;53.248;10.336;2023-06-26T07:38:21;28.50;99.90
7028;DHT22;3555;53.248;10.336;2023-06-26T07:40:48;28.20;99.90
7028;DHT22;3555;53.248;10.336;2023-06-26T07:43:17;28.20;99.90
7028;DHT22;3555;53.248;10.336;2023-06-26T07:45:44;28.40;99.90
7028;DHT22;3555;53.248;10.336;2023-06-26T07:48:10;28.70;99.90
7028;DHT22;3555;53.248;10.336;2023-06-26T07:50:37;29.10;99.90
7028;DHT22;3555;53.248;10.336;2023-06-26T07:53:04;29.30;74.60
7028;DHT22;3555;53.248;10.336;2023-06-26T07:55:31;29.20;80.00
7028;DHT22;3555;53.248;10.336;2023-06-26T07:57:58;29.50;29.60
7028;DHT22;3555;53.248;10.336;2023-06-26T08:00:28;29.60;1.00
7028;DHT22;3555;53.248;10.336;2023-06-26T08:02:55;29.40;1.00
7028;DHT22;3555;53.248;10.336;2023-06-26T08:05:22;29.60;1.00
7028;DHT22;3555;53.248;10.336;2023-06-26T08:07:48;29.60;1.00
7028;DHT22;3555;53.248;10.336;2023-06-26T08:10:15;29.70;43.60
7028;DHT22;3555;53.248;10.336;2023-06-26T08:12:42;30.00;36.70
7028;DHT22;3555;53.248;10.336;2023-06-26T08:15:10;30.40;1.00
7028;DHT22;3555;53.248;10.336;2023-06-26T08:17:39;30.40;1.00
7028;DHT22;3555;53.248;10.336;2023-06-26T08:20:06;30.40;1.00
7028;DHT22;3555;53.248;10.336;2023-06-26T08:22:34;30.60;1.00
7028;DHT22;3555;53.248;10.336;2023-06-26T08:25:02;30.70;1.00
7028;DHT22;3555;53.248;10.336;2023-06-26T08:27:29;30.90;1.00
7028;DHT22;3555;53.248;10.336;2023-06-26T08:29:56;30.90;1.00
7028;DHT22;3555;53.248;10.336;2023-06-26T08:32:24;30.30;1.00
7028;DHT22;3555;53.248;10.336;2023-06-26T08:34:54;30.50;1.00
7028;DHT22;3555;53.248;10.336;2023-06-26T08:37:21;30.50;1.00
7028;DHT22;3555;53.248;10.336;2023-06-26T08:39:48;30.80;1.00
7028;DHT22;3555;53.248;10.336;2023-06-26T08:42:15;30.70;1.00
7028;DHT22;3555;53.248;10.336;2023-06-26T08:44:42;30.40;1.00
7028;DHT22;3555;53.248;10.336;2023-06-26T08:47:11;30.30;1.00
7028;DHT22;3555;53.248;10.336;2023-06-26T08:49:45;30.50;1.00
7028;DHT22;3555;53.248;10.336;2023-06-26T08:52:22;30.70;1.00
7028;DHT22;3555;53.248;10.336;2023-06-26T08:54:54;30.90;1.00
7028;DHT22;3555;53.248;10.336;2023-06-26T08:57:23;31.20;1.00
7028;DHT22;3555;53.248;10.336;2023-06-26T08:59:50;31.20;1.00
7028;DHT22;3555;53.248;10.336;2023-06-26T09:02:18;31.40;1.00
7028;DHT22;3555;53.248;10.336;2023-06-26T09:04:47;31.60;1.00
7028;DHT22;3555;53.248;10.336;2023-06-26T09:07:16;31.70;1.00
7028;DHT22;3555;53.248;10.336;2023-06-26T09:09:43;31.60;1.00
7028;DHT22;3555;53.248;10.336;2023-06-26T09:12:10;31.70;1.00
7028;DHT22;3555;53.248;10.336;2023-06-26T09:14:37;31.40;1.00
7028;DHT22;3555;53.248;10.336;2023-06-26T09:17:04;31.30;1.00
7028;DHT22;3555;53.248;10.336;2023-06-26T09:19:31;31.00;1.00
7028;DHT22;3555;53.248;10.336;2023-06-26T09:21:58;31.00;1.00
7028;DHT22;3555;53.248;10.336;2023-06-26T09:24:27;31.00;1.00
7028;DHT22;3555;53.248;10.336;2023-06-26T09:26:54;31.00;1.00
7028;DHT22;3555;53.248;10.336;2023-06-26T09:29:22;30.90;1.00
7028;DHT22;3555;53.248;10.336;2023-06-26T09:31:51;31.20;1.00
7028;DHT22;3555;53.248;10.336;2023-06-26T09:34:18;31.20;1.00
7028;DHT22;3555;53.248;10.336;2023-06-26T09:36:46;31.00;1.00
7028;DHT22;3555;53.248;10.336;2023-06-26T09:39:14;31.10;1.00
7028;DHT22;3555;53.248;10.336;2023-06-26T09:41:43;31.20;1.00
7028;DHT22;3555;53.248;10.336;2023-06-26T09:44:11;31.50;1.00
7028;DHT22;3555;53.248;10.336;2023-06-26T09:46:38;31.90;1.00
7028;DHT22;3555;53.248;10.336;2023-06-26T09:49:06;32.40;1.00
7028;DHT22;3555;53.248;10.336;2023-06-26T09:51:35;32.90;1.00
7028;DHT22;3555;53.248;10.336;2023-06-26T09:54:03;33.30;1.00
7028;DHT22;3555;53.248;10.336;2023-06-26T09:56:30;33.50;1.00
7028;DHT22;3555;53.248;10.336;2023-06-26T09:59:00;33.70;1.00
7028;DHT22;3555;53.248;10.336;2023-06-26T10:01:28;33.80;1.00
7028;DHT22;3555;53.248;10.336;2023-06-26T10:03:56;33.90;1.00
7028;DHT22;3555;53.248;10.336;2023-06-26T10:06:27;33.50;1.00
7028;DHT22;3555;53.248;10.336;2023-06-26T10:08:56;33.50;1.00
7028;DHT22;3555;53.248;10.336;2023-06-26T10:11:25;33.40;1.00
7028;DHT22;3555;53.248;10.336;2023-06-26T10:13:59;33.50;1.00
7028;DHT22;3555;53.248;10.336;2023-06-26T10:16:28;33.20;1.00
7028;DHT22;3555;53.248;10.336;2023-06-26T10:19:01;33.10;1.00
7028;DHT22;3555;53.248;10.336;2023-06-26T10:21:29;32.90;1.00
7028;DHT22;3555;53.248;10.336;2023-06-26T10:23:59;32.50;1.00
7028;DHT22;3555;53.248;10.336;2023-06-26T10:26:26;32.40;1.00
7028;DHT22;3555;53.248;10.336;2023-06-26T10:28:56;32.20;1.00
7028;DHT22;3555;53.248;10.336;2023-06-26T10:31:26;32.20;1.00
7028;DHT22;3555;53.248;10.336;2023-06-26T10:33:55;32.00;1.00
7028;DHT22;3555;53.248;10.336;2023-06-26T10:36:28;31.50;1.00
7028;DHT22;3555;53.248;10.336;2023-06-26T10:38:57;31.10;1.00
7028;DHT22;3555;53.248;10.336;2023-06-26T10:41:25;30.30;1.00
7028;DHT22;3555;53.248;10.336;2023-06-26T10:44:06;29.70;1.00
7028;DHT22;3555;53.248;10.336;2023-06-26T10:46:48;28.90;99.90
7028;DHT22;3555;53.248;10.336;2023-06-26T10:49:15;28.10;1.00
7028;DHT22;3555;53.248;10.336;2023-06-26T10:51:46;27.60;1.00
7028;DHT22;3555;53.248;10.336;2023-06-26T10:54:15;27.30;99.90
7028;DHT22;3555;53.248;10.336;2023-06-26T10:56:43;27.30;1.00
7028;DHT22;3555;53.248;10.336;2023-06-26T10:59:18;27.00;99.90
7028;DHT22;3555;53.248;10.336;2023-06-26T11:01:54;26.90;99.90
7028;DHT22;3555;53.248;10.336;2023-06-26T11:04:36;26.90;99.90
7028;DHT22;3555;53.248;10.336;2023-06-26T11:07:18;26.90;99.90
7028;DHT22;3555;53.248;10.336;2023-06-26T11:09:56;27.00;99.90
7028;DHT22;3555;53.248;10.336;2023-06-26T11:12:35;26.50;99.90
7028;DHT22;3555;53.248;10.336;2023-06-26T11:15:03;26.00;1.00
7028;DHT22;3555;53.248;10.336;2023-06-26T11:17:32;25.60;1.00
7028;DHT22;3555;53.248;10.336;2023-06-26T11:19:59;25.40;1.00
7028;DHT22;3555;53.248;10.336;2023-06-26T11:22:27;25.20;1.00
7028;DHT22;3555;53.248;10.336;2023-06-26T11:24:54;25.10;99.90
7028;DHT22;3555;53.248;10.336;2023-06-26T11:27:32;24.80;99.90
7028;DHT22;3555;53.248;10.336;2023-06-26T11:29:59;25.00;1.00
7028;DHT22;3555;53.248;10.336;2023-06-26T11:32:27;25.00;99.90
7028;DHT22;3555;53.248;10.336;2023-06-26T11:34:57;24.80;1.00
7028;DHT22;3555;53.248;10.336;2023-06-26T11:37:25;24.80;99.90
7028;DHT22;3555;53.248;10.336;2023-06-26T11:39:52;25.10;99.90
7028;DHT22;3555;53.248;10.336;2023-06-26T11:42:20;25.30;99.90
7028;DHT22;3555;53.248;10.336;2023-06-26T11:44:48;25.30;1.00
7028;DHT22;3555;53.248;10.336;2023-06-26T11:47:15;25.20;1.00
7028;DHT22;3555;53.248;10.336;2023-06-26T11:49:43;25.20;99.90
7028;DHT22;3555;53.248;10.336;2023-06-26T11:52:12;25.20;1.00
7028;DHT22;3555;53.248;10.336;2023-06-26T11:54:39;25.20;1.00
7028;DHT22;3555;53.248;10.336;2023-06-26T11:57:07;25.10;99.90
7028;DHT22;3555;53.248;10.336;2023-06-26T11:59:35;25.00;99.90
7028;DHT22;3555;53.248;10.336;2023-06-26T12:02:06;25.10;99.90
7028;DHT22;3555;53.248;10.336;2023-06-26T12:04:34;25.30;99.90
7028;DHT22;3555;53.248;10.336;2023-06-26T12:07:03;25.30;99.90
7028;DHT22;3555;53.248;10.336;2023-06-26T12:09:34;25.20;99.90
7028;DHT22;3555;53.248;10.336;2023-06-26T12:12:05;25.10;1.00
7028;DHT22;3555;53.248;10.336;2023-06-26T12:14:32;25.00;1.00
7028;DHT22;3555;53.248;10.336;2023-06-26T12:17:04;24.90;1.00
7028;DHT22;3555;53.248;10.336;2023-06-26T12:19:31;24.80;61.40
7028;DHT22;3555;53.248;10.336;2023-06-26T12:21:58;24.80;1.00
7028;DHT22;3555;53.248;10.336;2023-06-26T12:24:25;24.80;99.90
7028;DHT22;3555;53.248;10.336;2023-06-26T12:26:55;24.90;1.00
7028;DHT22;3555;53.248;10.336;2023-06-26T12:29:31;24.80;1.00
7028;DHT22;3555;53.248;10.336;2023-06-26T12:31:59;25.10;1.00
7028;DHT22;3555;53.248;10.336;2023-06-26T12:34:28;25.30;99.90
7028;DHT22;3555;53.248;10.336;2023-06-26T12:37:00;25.50;43.40
7028;DHT22;3555;53.248;10.336;2023-06-26T12:39:28;25.70;15.00
7028;DHT22;3555;53.248;10.336;2023-06-26T12:41:59;25.90;99.90
7028;DHT22;3555;53.248;10.336;2023-06-26T12:44:27;25.80;1.00
7028;DHT22;3555;53.248;10.336;2023-06-26T12:46:56;26.00;1.00
7028;DHT22;3555;53.248;10.336;2023-06-26T12:49:31;25.70;1.00
7028;DHT22;3555;53.248;10.336;2023-06-26T12:51:59;25.40;1.00
7028;DHT22;3555;53.248;10.336;2023-06-26T12:54:27;25.30;99.90
7028;DHT22;3555;53.248;10.336;2023-06-26T12:56:54;25.40;1.00
7028;DHT22;3555;53.248;10.336;2023-06-26T12:59:22;25.40;20.30
7028;DHT22;3555;53.248;10.336;2023-06-26T13:01:49;25.60;1.00
7028;DHT22;3555;53.248;10.336;2023-06-26T13:04:16;25.70;1.00
7028;DHT22;3555;53.248;10.336;2023-06-26T13:06:43;25.90;1.00
7028;DHT22;3555;53.248;10.336;2023-06-26T13:09:11;26.10;1.00
7028;DHT22;3555;53.248;10.336;2023-06-26T13:11:38;26.30;99.90
7028;DHT22;3555;53.248;10.336;2023-06-26T13:14:05;26.40;1.00
7028;DHT22;3555;53.248;10.336;2023-06-26T13:16:34;26.60;1.00
7028;DHT22;3555;53.248;10.336;2023-06-26T13:19:01;26.70;99.90
7028;DHT22;3555;53.248;10.336;2023-06-26T13:21:28;26.70;1.00
7028;DHT22;3555;53.248;10.336;2023-06-26T13:23:55;26.80;1.00
7028;DHT22;3555;53.248;10.336;2023-06-26T13:26:22;26.60;1.00
7028;DHT22;3555;53.248;10.336;2023-06-26T13:28:51;26.50;1.00
7028;DHT22;3555;53.248;10.336;2023-06-26T13:31:18;26.50;99.90
7028;DHT22;3555;53.248;10.336;2023-06-26T13:33:47;26.40;1.00
7028;DHT22;3555;53.248;10.336;2023-06-26T13:36:15;26.30;99.90
7028;DHT22;3555;53.248;10.336;2023-06-26T13:38:42;26.30;1.00
7028;DHT22;3555;53.248;10.336;2023-06-26T13:41:10;26.50;1.00
7028;DHT22;3555;53.248;10.336;2023-06-26T13:43:37;26.60;1.00
7028;DHT22;3555;53.248;10.336;2023-06-26T13:46:04;26.80;1.00
7028;DHT22;3555;53.248;10.336;2023-06-26T13:48:31;26.80;1.00
7028;DHT22;3555;53.248;10.336;2023-06-26T13:50:59;26.70;99.90
7028;DHT22;3555;53.248;10.336;2023-06-26T13:53:26;26.80;99.90
7028;DHT22;3555;53.248;10.336;2023-06-26T13:55:53;26.80;99.90
7028;DHT22;3555;53.248;10.336;2023-06-26T13:58:20;26.90;99.90
7028;DHT22;3555;53.248;10.336;2023-06-26T14:00:50;27.00;88.70
7028;DHT22;3555;53.248;10.336;2023-06-26T14:03:16;27.10;98.50
7028;DHT22;3555;53.248;10.336;2023-06-26T14:05:43;26.90;1.00
7028;DHT22;3555;53.248;10.336;2023-06-26T14:08:12;26.70;1.00
7028;DHT22;3555;53.248;10.336;2023-06-26T14:10:39;26.80;1.00
7028;DHT22;3555;53.248;10.336;2023-06-26T14:13:06;26.70;1.00
7028;DHT22;3555;53.248;10.336;2023-06-26T14:15:34;26.90;36.00
7028;DHT22;3555;53.248;10.336;2023-06-26T14:18:02;27.20;1.00
7028;DHT22;3555;53.248;10.336;2023-06-26T14:20:29;27.10;1.00
7028;DHT22;3555;53.248;10.336;2023-06-26T14:22:58;27.10;1.00
7028;DHT22;3555;53.248;10.336;2023-06-26T14:25:27;26.90;1.00
7028;DHT22;3555;53.248;10.336;2023-06-26T14:27:54;27.00;1.00
7028;DHT22;3555;53.248;10.336;2023-06-26T14:30:22;26.90;1.00
7028;DHT22;3555;53.248;10.336;2023-06-26T14:32:48;26.80;1.00
7028;DHT22;3555;53.248;10.336;2023-06-26T14:35:16;26.80;1.00
7028;DHT22;3555;53.248;10.336;2023-06-26T14:37:43;26.90;2.80
7028;DHT22;3555;53.248;10.336;2023-06-26T14:40:11;27.10;1.00
7028;DHT22;3555;53.248;10.336;2023-06-26T14:42:39;27.00;1.00
7028;DHT22;3555;53.248;10.336;2023-06-26T14:45:09;27.10;1.00
7028;DHT22;3555;53.248;10.336;2023-06-26T14:47:36;27.00;1.00
7028;DHT22;3555;53.248;10.336;2023-06-26T14:50:04;26.80;1.00
7028;DHT22;3555;53.248;10.336;2023-06-26T14:52:31;26.80;1.00
7028;DHT22;3555;53.248;10.336;2023-06-26T14:54:58;26.90;1.00
7028;DHT22;3555;53.248;10.336;2023-06-26T14:57:25;27.10;1.00
7028;DHT22;3555;53.248;10.336;2023-06-26T14:59:53;27.20;1.00
7028;DHT22;3555;53.248;10.336;2023-06-26T15:02:20;27.40;1.00
7028;DHT22;3555;53.248;10.336;2023-06-26T15:04:47;27.50;1.00
7028;DHT22;3555;53.248;10.336;2023-06-26T15:07:13;27.30;1.00
7028;DHT22;3555;53.248;10.336;2023-06-26T15:09:40;27.20;1.00
7028;DHT22;3555;53.248;10.336;2023-06-26T15:12:08;27.10;1.00
7028;DHT22;3555;53.248;10.336;2023-06-26T15:14:35;26.70;1.00
7028;DHT22;3555;53.248;10.336;2023-06-26T15:17:03;26.60;1.00
7028;DHT22;3555;53.248;10.336;2023-06-26T15:19:30;26.70;1.00
7028;DHT22;3555;53.248;10.336;2023-06-26T15:21:57;26.80;1.00
7028;DHT22;3555;53.248;10.336;2023-06-26T15:24:24;26.70;1.00
7028;DHT22;3555;53.248;10.336;2023-06-26T15:26:51;26.60;1.00
7028;DHT22;3555;53.248;10.336;2023-06-26T15:29:18;26.60;1.00
7028;DHT22;3555;53.248;10.336;2023-06-26T15:31:45;26.60;1.00
7028;DHT22;3555;53.248;10.336;2023-06-26T15:34:13;26.50;1.00
7028;DHT22;3555;53.248;10.336;2023-06-26T15:36:40;26.40;1.00
7028;DHT22;3555;53.248;10.336;2023-06-26T15:39:08;26.30;1.00
7028;DHT22;3555;53.248;10.336;2023-06-26T15:41:35;25.90;1.00
7028;DHT22;3555;53.248;10.336;2023-06-26T15:44:03;25.50;1.00
7028;DHT22;3555;53.248;10.336;2023-06-26T15:46:30;25.50;1.00
7028;DHT22;3555;53.248;10.336;2023-06-26T15:48:57;25.50;1.00
7028;DHT22;3555;53.248;10.336;2023-06-26T15:51:25;25.50;1.00
7028;DHT22;3555;53.248;10.336;2023-06-26T15:53:52;25.50;1.00
7028;DHT22;3555;53.248;10.336;2023-06-26T15:56:19;25.50;1.00
7028;DHT22;3555;53.248;10.336;2023-06-26T15:58:46;25.50;1.00
7028;DHT22;3555;53.248;10.336;2023-06-26T16:01:14;25.40;1.00